createdAt,value
2023-04-20T00:02:21.720Z,98070.06
2023-04-20T00:04:50.053Z,98061.59
2023-04-20T00:07:18.217Z,98063.28
2023-04-20T00:09:47.808Z,98062.41
2023-04-20T00:12:15.997Z,98058.19
2023-04-20T00:14:44.258Z,98054.78
2023-04-20T00:17:12.460Z,98055.59
2023-04-20T00:19:40.578Z,98044.59
2023-04-20T00:22:08.706Z,98050.53
2023-04-20T00:24:36.910Z,98047.16
2023-04-20T00:27:06.897Z,98025.94
2023-04-20T00:29:35.688Z,98040.34
2023-04-20T00:32:03.858Z,98037.81
2023-04-20T00:34:32.012Z,98040.38
2023-04-20T00:37:00.241Z,98031.06
2023-04-20T00:39:28.501Z,98033.59
2023-04-20T00:41:56.867Z,98028.50
2023-04-20T00:44:26.602Z,98031.03
2023-04-20T00:46:56.644Z,98024.25
2023-04-20T00:49:24.976Z,98028.50
2023-04-20T00:51:54.235Z,98018.31
2023-04-20T00:54:22.855Z,98016.63
2023-04-20T00:56:51.977Z,98018.31
2023-04-20T00:59:20.197Z,98006.47
2023-04-20T01:01:49.883Z,98011.53
2023-04-20T01:04:18.913Z,98008.16
2023-04-20T01:06:47.117Z,98003.91
2023-04-20T01:09:15.464Z,97997.97
2023-04-20T01:11:43.880Z,97993.72
2023-04-20T01:14:11.960Z,98003.06
2023-04-20T01:16:40.289Z,98012.38
2023-04-20T01:19:09.786Z,98014.94
2023-04-20T01:21:38.267Z,98014.88
2023-04-20T01:24:08.749Z,98021.66
2023-04-20T01:26:37.094Z,98009.75
2023-04-20T01:29:05.476Z,98002.06
2023-04-20T01:31:33.703Z,98013.94
2023-04-20T01:34:01.852Z,98013.06
2023-04-20T01:36:29.929Z,98007.94
2023-04-20T01:38:58.062Z,98003.69
2023-04-20T01:41:28.080Z,98002.00
2023-04-20T01:43:56.347Z,98001.13
2023-04-20T01:46:24.750Z,98001.97
2023-04-20T01:48:52.909Z,98002.78
2023-04-20T01:51:21.300Z,97995.97
2023-04-20T01:53:49.453Z,97995.94
2023-04-20T01:56:17.726Z,97994.28
2023-04-20T01:58:47.223Z,97990.09
2023-04-20T02:01:15.369Z,97986.66
2023-04-20T02:03:43.731Z,97992.56
2023-04-20T02:06:12.111Z,97996.75
2023-04-20T02:08:40.780Z,97993.38
2023-04-20T02:11:08.992Z,97989.16
2023-04-20T02:13:37.058Z,97990.78
2023-04-20T02:16:07.440Z,97995.00
2023-04-20T02:18:35.590Z,97980.63
2023-04-20T02:21:03.828Z,97982.28
2023-04-20T02:23:32.157Z,97975.56
2023-04-20T02:26:00.344Z,97975.56
2023-04-20T02:28:28.532Z,97969.63
2023-04-20T02:30:56.704Z,97968.69
2023-04-20T02:33:26.203Z,97966.97
2023-04-20T02:35:54.674Z,97961.91
2023-04-20T02:38:22.834Z,97963.59
2023-04-20T02:40:51.554Z,97978.84
2023-04-20T02:43:20.511Z,97962.88
2023-04-20T02:45:48.700Z,97970.56
2023-04-20T02:48:16.907Z,97970.56
2023-04-20T02:50:46.568Z,97961.22
2023-04-20T02:53:14.941Z,97951.91
2023-04-20T02:55:43.048Z,97957.00
2023-04-20T02:58:11.971Z,97957.75
2023-04-20T03:00:40.123Z,97956.06
2023-04-20T03:03:08.561Z,97954.25
2023-04-20T03:05:36.718Z,97960.16
2023-04-20T03:08:07.412Z,97949.19
2023-04-20T03:10:35.924Z,97958.50
2023-04-20T03:13:04.239Z,97960.13
2023-04-20T03:15:32.498Z,97960.97
2023-04-20T03:18:00.680Z,97954.28
2023-04-20T03:20:29.084Z,97954.25
2023-04-20T03:22:57.427Z,97955.09
2023-04-20T03:25:27.337Z,97949.97
2023-04-20T03:27:56.034Z,97959.22
2023-04-20T03:30:24.380Z,97953.34
2023-04-20T03:32:53.421Z,97956.75
2023-04-20T03:35:22.434Z,97952.47
2023-04-20T03:37:50.544Z,97950.75
2023-04-20T03:40:18.706Z,97946.50
2023-04-20T03:42:48.109Z,97954.13
2023-04-20T03:45:16.492Z,97945.69
2023-04-20T03:47:44.779Z,97955.78
2023-04-20T03:50:13.112Z,97948.94
2023-04-20T03:52:41.457Z,97948.97
2023-04-20T03:55:10.893Z,97951.59
2023-04-20T03:57:39.397Z,97931.25
2023-04-20T04:00:11.178Z,97947.44
2023-04-20T04:02:39.500Z,97944.06
2023-04-20T04:05:08.967Z,97931.44
2023-04-20T04:07:37.248Z,97943.22
2023-04-20T04:10:26.726Z,97943.19
2023-04-20T04:12:54.903Z,97936.50
2023-04-20T04:15:24.677Z,97946.59
2023-04-20T04:17:54.642Z,97936.47
2023-04-20T04:20:22.806Z,97935.63
2023-04-20T04:22:52.131Z,97949.94
2023-04-20T04:25:20.559Z,97943.19
2023-04-20T04:27:49.015Z,97946.56
2023-04-20T04:30:17.773Z,97944.88
2023-04-20T04:32:49.270Z,97943.97
2023-04-20T04:35:17.765Z,97948.19
2023-04-20T04:37:46.590Z,97943.91
2023-04-20T04:40:15.121Z,97948.13
2023-04-20T04:42:45.646Z,97935.44
2023-04-20T04:45:14.940Z,97941.44
2023-04-20T04:47:43.877Z,97947.38
2023-04-20T04:50:14.304Z,97944.88
2023-04-20T04:52:42.608Z,97947.44
2023-04-20T04:55:11.211Z,97934.88
2023-04-20T04:57:39.588Z,97927.22
2023-04-20T05:00:12.083Z,97933.13
2023-04-20T05:02:40.512Z,97934.03
2023-04-20T05:05:10.298Z,97936.56
2023-04-20T05:07:40.593Z,97942.47
2023-04-20T05:10:09.987Z,97940.00
2023-04-20T05:12:38.476Z,97931.59
2023-04-20T05:15:07.987Z,97927.34
2023-04-20T05:17:36.432Z,97933.28
2023-04-20T05:20:06.507Z,97935.88
2023-04-20T05:22:34.980Z,97940.97
2023-04-20T05:25:06.780Z,97945.22
2023-04-20T05:27:35.026Z,97937.59
2023-04-20T05:30:18.902Z,97941.78
2023-04-20T05:32:51.966Z,97940.19
2023-04-20T05:35:21.458Z,97940.19
2023-04-20T05:37:50.551Z,97933.44
2023-04-20T05:40:20.600Z,97935.97
2023-04-20T05:42:48.981Z,97937.69
2023-04-20T05:45:17.487Z,97941.97
2023-04-20T05:47:54.506Z,97936.88
2023-04-20T05:50:23.421Z,97944.53
2023-04-20T05:52:52.037Z,97933.53
2023-04-20T05:55:23.006Z,97930.16
2023-04-20T05:57:54.204Z,97928.47
2023-04-20T06:00:25.874Z,97935.25
2023-04-20T06:02:55.354Z,97929.31
2023-04-20T06:05:24.412Z,97935.25
2023-04-20T06:07:53.777Z,97935.25
2023-04-20T06:10:24.243Z,97942.03
2023-04-20T06:12:52.597Z,97936.94
2023-04-20T06:15:20.875Z,97938.63
2023-04-20T06:17:49.580Z,97941.16
2023-04-20T06:20:18.066Z,97939.44
2023-04-20T06:22:47.026Z,97939.41
2023-04-20T06:25:15.865Z,97934.31
2023-04-20T06:27:46.916Z,97937.69
2023-04-20T06:30:16.328Z,97940.19
2023-04-20T06:32:44.923Z,97938.41
2023-04-20T06:35:13.277Z,97935.78
2023-04-20T06:37:41.528Z,97928.06
2023-04-20T06:40:10.379Z,97922.94
2023-04-20T06:42:38.741Z,97927.13
2023-04-20T06:45:09.662Z,97926.16
2023-04-20T06:47:38.395Z,97930.47
2023-04-20T06:50:10.044Z,97927.09
2023-04-20T06:52:38.938Z,97928.06
2023-04-20T06:55:07.624Z,97927.22
2023-04-20T06:57:37.554Z,97922.13
2023-04-20T07:00:09.958Z,97923.78
2023-04-20T07:02:45.835Z,97926.19
2023-04-20T07:05:14.829Z,97912.38
2023-04-20T07:07:43.576Z,97920.69
2023-04-20T07:10:14.201Z,97908.72
2023-04-20T07:12:43.925Z,97905.13
2023-04-20T07:15:14.260Z,97909.06
2023-04-20T07:17:43.027Z,97901.44
2023-04-20T07:20:11.486Z,97908.66
2023-04-20T07:22:40.608Z,97910.38
2023-04-20T07:25:11.117Z,97909.44
2023-04-20T07:27:40.457Z,97916.06
2023-04-20T07:30:10.914Z,97913.47
2023-04-20T07:32:42.434Z,97919.97
2023-04-20T07:35:12.167Z,97909.50
2023-04-20T07:37:40.871Z,97906.19
2023-04-20T07:40:10.575Z,97909.88
2023-04-20T07:42:39.056Z,97905.72
2023-04-20T07:45:08.364Z,97909.72
2023-04-20T07:47:37.229Z,97909.56
2023-04-20T07:50:08.876Z,97904.22
2023-04-20T07:52:37.495Z,97910.47
2023-04-20T07:55:08.264Z,97911.69
2023-04-20T07:57:38.649Z,97918.06
2023-04-20T08:00:10.023Z,97916.06
2023-04-20T08:02:38.929Z,97893.41
2023-04-20T08:05:10.246Z,97903.53
2023-04-20T08:07:39.011Z,97893.13
2023-04-20T08:10:08.587Z,97901.94
2023-04-20T08:12:38.164Z,97897.22
2023-04-20T08:15:08.036Z,97886.31
2023-04-20T08:17:36.513Z,97891.34
2023-04-20T08:20:06.419Z,97879.72
2023-04-20T08:22:36.160Z,97891.13
2023-04-20T08:25:04.497Z,97883.94
2023-04-20T08:27:33.482Z,97883.09
2023-04-20T08:30:04.441Z,97882.66
2023-04-20T08:32:32.940Z,97876.47
2023-04-20T08:35:01.974Z,97876.59
2023-04-20T08:37:32.541Z,97871.19
2023-04-20T08:40:03.804Z,97868.63
2023-04-20T08:42:32.969Z,97867.19
2023-04-20T08:45:01.325Z,97875.31
2023-04-20T08:47:31.067Z,97866.88
2023-04-20T08:50:01.775Z,97866.25
2023-04-20T08:52:30.932Z,97869.81
2023-04-20T08:54:59.628Z,97864.84
2023-04-20T08:57:29.534Z,97871.47
2023-04-20T08:59:58.997Z,97869.25
2023-04-20T09:02:27.597Z,97865.66
2023-04-20T09:05:06.280Z,97864.66
2023-04-20T09:07:34.965Z,97867.44
2023-04-20T09:10:03.963Z,97867.13
2023-04-20T09:12:43.185Z,97874.97
2023-04-20T09:15:12.598Z,97871.25
2023-04-20T09:17:42.144Z,97875.94
2023-04-20T09:20:11.528Z,97873.94
2023-04-20T09:22:40.390Z,97876.38
2023-04-20T09:25:16.458Z,97857.41
2023-04-20T09:27:56.965Z,97874.31
2023-04-20T09:30:25.918Z,97867.72
2023-04-20T09:33:04.404Z,97861.13
2023-04-20T09:35:34.141Z,97859.38
2023-04-20T09:38:02.817Z,97853.38
2023-04-20T09:40:31.549Z,97850.53
2023-04-20T09:43:09.267Z,97861.84
2023-04-20T09:45:40.508Z,97850.03
2023-04-20T09:48:09.803Z,97849.66
2023-04-20T09:50:48.601Z,97847.53
2023-04-20T09:53:18.914Z,97840.41
2023-04-20T09:55:49.583Z,97841.63
2023-04-20T09:58:21.077Z,97846.38
2023-04-20T10:00:50.500Z,97833.63
2023-04-20T10:03:19.521Z,97845.22
2023-04-20T10:05:48.158Z,97836.56
2023-04-20T10:08:16.775Z,97835.63
2023-04-20T10:10:48.068Z,97836.69
2023-04-20T10:13:19.500Z,97833.16
2023-04-20T10:15:53.139Z,97824.47
2023-04-20T10:18:25.095Z,97815.63
2023-04-20T10:21:06.382Z,97816.84
2023-04-20T10:23:35.123Z,97816.56
2023-04-20T10:26:03.929Z,97815.16
2023-04-20T10:28:41.943Z,97811.28
2023-04-20T10:31:14.918Z,97805.06
2023-04-20T10:33:53.882Z,97817.78
2023-04-20T10:36:27.451Z,97807.00
2023-04-20T10:38:56.211Z,97799.38
2023-04-20T10:41:24.998Z,97796.31
2023-04-20T10:43:53.381Z,97786.44
2023-04-20T10:46:24.630Z,97784.19
2023-04-20T10:48:54.248Z,97792.53
2023-04-20T10:51:23.352Z,97786.88
2023-04-20T10:54:02.405Z,97790.56
2023-04-20T10:56:38.243Z,97779.75
2023-04-20T10:59:09.933Z,97782.72
2023-04-20T11:01:41.198Z,97771.72
2023-04-20T11:04:11.302Z,97776.97
2023-04-20T11:06:40.833Z,97763.34
2023-04-20T11:09:20.214Z,97765.13
2023-04-20T11:12:01.600Z,97761.59
2023-04-20T11:14:30.385Z,97746.66
2023-04-20T11:17:01.784Z,97758.56
2023-04-20T11:19:32.859Z,97739.91
2023-04-20T11:22:02.692Z,97748.09
2023-04-20T11:24:33.066Z,97731.47
2023-04-20T11:27:04.695Z,97737.75
2023-04-20T11:29:35.169Z,97712.69
2023-04-20T11:32:07.371Z,97722.84
2023-04-20T11:34:38.435Z,97716.00
2023-04-20T11:37:07.715Z,97726.78
2023-04-20T11:39:36.496Z,97721.69
2023-04-20T11:42:06.022Z,97718.72
2023-04-20T11:44:36.910Z,97713.81
2023-04-20T11:47:08.245Z,97722.63
2023-04-20T11:49:36.994Z,97728.78
2023-04-20T11:52:05.641Z,97718.56
2023-04-20T11:54:40.667Z,97716.31
2023-04-20T11:57:08.951Z,97724.31
2023-04-20T11:59:37.442Z,97720.22
2023-04-20T12:02:07.741Z,97720.00
2023-04-20T12:04:36.731Z,97713.72
2023-04-20T12:07:05.081Z,97697.81
2023-04-20T12:09:37.448Z,97720.13
2023-04-20T12:12:07.685Z,97724.59
2023-04-20T12:14:36.844Z,97721.53
2023-04-20T12:17:07.275Z,97722.63
2023-04-20T12:19:36.267Z,97717.09
2023-04-20T12:22:04.643Z,97719.41
2023-04-20T12:24:33.035Z,97720.16
2023-04-20T12:27:03.875Z,97723.53
2023-04-20T12:29:33.294Z,97722.16
2023-04-20T12:32:02.789Z,97725.91
2023-04-20T12:34:32.383Z,97712.78
2023-04-20T12:37:01.276Z,97723.00
2023-04-20T12:39:29.761Z,97723.91
2023-04-20T12:41:58.303Z,97729.16
2023-04-20T12:44:27.020Z,97722.56
2023-04-20T12:46:55.872Z,97727.44
2023-04-20T12:49:24.399Z,97720.72
2023-04-20T12:51:53.938Z,97715.59
2023-04-20T12:54:22.264Z,97709.38
2023-04-20T12:56:50.998Z,97716.34
2023-04-20T12:59:19.760Z,97719.56
2023-04-20T13:01:48.861Z,97722.31
2023-04-20T13:04:17.717Z,97726.63
2023-04-20T13:06:46.425Z,97727.50
2023-04-20T13:09:16.071Z,97725.78
2023-04-20T13:11:44.694Z,97728.63
2023-04-20T13:14:12.935Z,97720.66
2023-04-20T13:16:41.725Z,97710.50
2023-04-20T13:19:10.049Z,97713.56
2023-04-20T13:21:38.657Z,97712.81
2023-04-20T13:24:07.595Z,97709.47
2023-04-20T13:26:38.025Z,97703.56
2023-04-20T13:29:06.407Z,97711.06
2023-04-20T13:31:34.870Z,97718.63
2023-04-20T13:34:03.377Z,97709.28
2023-04-20T13:36:32.850Z,97710.59
2023-04-20T13:39:03.791Z,97688.16
2023-04-20T13:41:32.450Z,97718.66
2023-04-20T13:44:02.687Z,97712.16
2023-04-20T13:46:31.285Z,97713.75
2023-04-20T13:48:59.972Z,97705.38
2023-04-20T13:51:30.415Z,97710.72
2023-04-20T13:53:58.827Z,97694.94
2023-04-20T13:56:27.394Z,97710.28
2023-04-20T13:58:56.199Z,97704.75
2023-04-20T14:01:27.063Z,97698.28
2023-04-20T14:03:57.233Z,97707.03
2023-04-20T14:06:25.750Z,97705.59
2023-04-20T14:08:54.065Z,97706.41
2023-04-20T14:11:22.905Z,97706.53
2023-04-20T14:13:51.998Z,97704.59
2023-04-20T14:16:20.380Z,97708.69
2023-04-20T14:18:50.472Z,97704.28
2023-04-20T14:21:18.804Z,97704.28
2023-04-20T14:23:47.190Z,97699.03
2023-04-20T14:26:15.377Z,97701.31
2023-04-20T14:28:43.878Z,97713.09
2023-04-20T14:31:12.162Z,97707.53
2023-04-20T14:33:41.684Z,97700.53
2023-04-20T14:36:11.659Z,97671.03
2023-04-20T14:38:40.558Z,97696.06
2023-04-20T14:41:09.412Z,97691.75
2023-04-20T14:43:38.168Z,97690.84
2023-04-20T14:46:07.476Z,97695.00
2023-04-20T14:48:39.111Z,97690.97
2023-04-20T14:51:07.596Z,97690.34
2023-04-20T14:53:37.630Z,97684.88
2023-04-20T14:56:06.241Z,97691.84
2023-04-20T14:58:36.432Z,97677.25
2023-04-20T15:01:04.925Z,97661.03
2023-04-20T15:03:33.639Z,97666.16
2023-04-20T15:06:03.979Z,97660.25
2023-04-20T15:08:33.906Z,97658.22
2023-04-20T15:11:05.254Z,97651.22
2023-04-20T15:13:33.513Z,97648.59
2023-04-20T15:16:01.971Z,97646.53
2023-04-20T15:18:30.871Z,97644.75
2023-04-20T15:20:59.582Z,97643.50
2023-04-20T15:23:31.188Z,97635.44
2023-04-20T15:26:01.136Z,97642.78
2023-04-20T15:28:30.650Z,97650.75
2023-04-20T15:30:59.024Z,97653.47
2023-04-20T15:33:27.738Z,97650.41
2023-04-20T15:35:56.406Z,97646.13
2023-04-20T15:38:25.298Z,97635.00
2023-04-20T15:40:55.447Z,97630.81
2023-04-20T15:43:23.743Z,97628.16
2023-04-20T15:45:53.776Z,97621.28
2023-04-20T15:48:22.744Z,97610.00
2023-04-20T15:50:53.011Z,97616.88
2023-04-20T15:53:22.361Z,97609.34
2023-04-20T15:55:51.564Z,97623.59
2023-04-20T15:58:20.077Z,97610.28
2023-04-20T16:00:49.314Z,97606.91
2023-04-20T16:03:19.805Z,97604.63
2023-04-20T16:05:48.655Z,97600.84
2023-04-20T16:08:19.342Z,97607.56
2023-04-20T16:10:47.820Z,97601.34
2023-04-20T16:13:16.511Z,97607.44
2023-04-20T16:15:45.118Z,97607.72
2023-04-20T16:18:13.458Z,97618.31
2023-04-20T16:20:43.292Z,97620.06
2023-04-20T16:23:11.683Z,97614.63
2023-04-20T16:25:40.255Z,97608.97
2023-04-20T16:28:09.347Z,97606.66
2023-04-20T16:30:37.772Z,97607.28
2023-04-20T16:33:06.781Z,97597.94
2023-04-20T16:35:35.242Z,97614.81
2023-04-20T16:38:04.973Z,97607.56
2023-04-20T16:40:34.342Z,97601.81
2023-04-20T16:43:03.180Z,97612.38
2023-04-20T16:45:32.321Z,97599.63
2023-04-20T16:48:01.668Z,97610.06
2023-04-20T16:50:30.702Z,97606.44
2023-04-20T16:52:59.844Z,97596.84
2023-04-20T16:55:29.803Z,97606.44
2023-04-20T16:58:01.036Z,97604.34
2023-04-20T17:00:31.105Z,97608.06
2023-04-20T17:03:01.620Z,97611.00
2023-04-20T17:05:30.577Z,97607.59
2023-04-20T17:08:00.051Z,97622.66
2023-04-20T17:10:31.327Z,97616.59
2023-04-20T17:13:00.143Z,97612.91
2023-04-20T17:15:30.351Z,97613.16
2023-04-20T17:17:59.010Z,97628.50
2023-04-20T17:20:27.661Z,97621.88
2023-04-20T17:22:56.008Z,97628.63
2023-04-20T17:25:24.580Z,97628.78
2023-04-20T17:27:54.507Z,97627.94
2023-04-20T17:30:23.247Z,97622.16
2023-04-20T17:32:52.016Z,97633.25
2023-04-20T17:35:21.304Z,97622.94
2023-04-20T17:37:49.801Z,97635.03
2023-04-20T17:40:18.370Z,97639.47
2023-04-20T17:42:46.632Z,97635.22
2023-04-20T17:45:17.319Z,97635.25
2023-04-20T17:47:47.510Z,97642.19
2023-04-20T17:50:16.746Z,97649.16
2023-04-20T17:52:45.435Z,97634.59
2023-04-20T17:55:14.249Z,97637.25
2023-04-20T17:57:47.411Z,97630.59
2023-04-20T18:00:19.164Z,97638.41
2023-04-20T18:02:48.146Z,97637.66
2023-04-20T18:05:17.156Z,97637.75
2023-04-20T18:07:45.947Z,97637.16
2023-04-20T18:10:16.004Z,97634.66
2023-04-20T18:12:45.240Z,97640.69
2023-04-20T18:15:14.272Z,97629.66
2023-04-20T18:17:44.652Z,97622.09
2023-04-20T18:20:13.807Z,97629.97
2023-04-20T18:22:42.205Z,97639.41
2023-04-20T18:25:11.237Z,97641.16
2023-04-20T18:27:39.882Z,97648.06
2023-04-20T18:30:09.584Z,97648.13
2023-04-20T18:32:38.693Z,97654.09
2023-04-20T18:35:09.766Z,97648.34
2023-04-20T18:37:38.531Z,97662.84
2023-04-20T18:40:08.347Z,97647.81
2023-04-20T18:42:36.646Z,97655.81
2023-04-20T18:45:06.347Z,97665.38
2023-04-20T18:47:34.842Z,97667.31
2023-04-20T18:50:03.003Z,97671.78
2023-04-20T18:52:35.908Z,97670.94
2023-04-20T18:55:04.894Z,97674.13
2023-04-20T18:57:34.038Z,97663.88
2023-04-20T19:00:07.310Z,97677.31
2023-04-20T19:02:36.240Z,97671.25
2023-04-20T19:05:05.135Z,97678.00
2023-04-20T19:07:34.700Z,97681.31
2023-04-20T19:10:02.923Z,97673.56
2023-04-20T19:12:32.718Z,97685.47
2023-04-20T19:15:01.470Z,97693.91
2023-04-20T19:17:29.899Z,97693.06
2023-04-20T19:19:58.144Z,97696.41
2023-04-20T19:22:26.579Z,97687.06
2023-04-20T19:24:56.452Z,97696.25
2023-04-20T19:27:24.696Z,97706.47
2023-04-20T19:29:53.968Z,97693.00
2023-04-20T19:32:22.312Z,97704.81
2023-04-20T19:34:52.562Z,97696.41
2023-04-20T19:37:20.927Z,97694.59
2023-04-20T19:39:49.367Z,97699.81
2023-04-20T19:42:19.991Z,97692.19
2023-04-20T19:44:48.868Z,97691.50
2023-04-20T19:47:17.028Z,97706.06
2023-04-20T19:49:45.818Z,97696.66
2023-04-20T19:52:15.264Z,97691.56
2023-04-20T19:54:44.021Z,97684.72
2023-04-20T19:57:12.408Z,97689.84
2023-04-20T19:59:42.687Z,97689.69
2023-04-20T20:02:11.218Z,97672.72
2023-04-20T20:04:39.853Z,97673.50
2023-04-20T20:07:08.569Z,97671.88
2023-04-20T20:09:37.745Z,97674.53
2023-04-20T20:12:08.588Z,97670.31
2023-04-20T20:14:37.683Z,97678.97
2023-04-20T20:17:08.000Z,97682.38
2023-04-20T20:19:36.630Z,97677.25
2023-04-20T20:22:05.012Z,97673.94
2023-04-20T20:24:33.321Z,97682.38
2023-04-20T20:27:02.425Z,97675.56
2023-04-20T20:29:31.208Z,97680.72
2023-04-20T20:32:00.340Z,97673.09
2023-04-20T20:34:30.234Z,97668.09
2023-04-20T20:36:59.038Z,97660.63
2023-04-20T20:39:27.953Z,97660.09
2023-04-20T20:41:57.536Z,97654.34
2023-04-20T20:44:28.179Z,97654.59
2023-04-20T20:46:57.217Z,97664.72
2023-04-20T20:49:26.088Z,97666.72
2023-04-20T20:51:56.141Z,97666.97
2023-04-20T20:54:24.675Z,97673.28
2023-04-20T20:56:53.765Z,97679.16
2023-04-20T20:59:25.424Z,97692.06
2023-04-20T21:01:54.481Z,97688.75
2023-04-20T21:04:23.146Z,97694.63
2023-04-20T21:06:51.699Z,97700.47
2023-04-20T21:09:21.536Z,97696.03
2023-04-20T21:11:53.821Z,97703.56
2023-04-20T21:14:22.624Z,97710.25
2023-04-20T21:16:50.919Z,97709.25
2023-04-20T21:19:19.606Z,97710.03
2023-04-20T21:21:48.070Z,97708.16
2023-04-20T21:24:16.261Z,97714.81
2023-04-20T21:26:46.235Z,97704.53
2023-04-20T21:29:14.651Z,97707.91
2023-04-20T21:31:43.034Z,97708.84
2023-04-20T21:34:13.807Z,97712.19
2023-04-20T21:36:42.042Z,97721.50
2023-04-20T21:39:10.064Z,97723.22
2023-04-20T21:41:38.515Z,97729.91
2023-04-20T21:44:08.244Z,97714.66
2023-04-20T21:46:36.728Z,97723.88
2023-04-20T21:49:05.435Z,97727.16
2023-04-20T21:51:34.150Z,97733.09
2023-04-20T21:54:02.913Z,97736.41
2023-04-20T21:56:31.236Z,97728.72
2023-04-20T21:58:59.829Z,97741.56
2023-04-20T22:01:29.682Z,97736.41
2023-04-20T22:03:58.322Z,97718.56
2023-04-20T22:06:27.203Z,97714.13
2023-04-20T22:08:56.513Z,97726.16
2023-04-20T22:11:24.660Z,97718.63
2023-04-20T22:13:53.036Z,97726.38
2023-04-20T22:16:21.953Z,97726.53
2023-04-20T22:18:52.114Z,97727.63
2023-04-20T22:21:20.491Z,97725.78
2023-04-20T22:23:48.809Z,97724.16
2023-04-20T22:26:17.297Z,97718.25
2023-04-20T22:28:45.549Z,97724.09
2023-04-20T22:31:14.454Z,97716.44
2023-04-20T22:33:42.621Z,97723.38
2023-04-20T22:36:12.294Z,97718.25
2023-04-20T22:38:41.201Z,97724.84
2023-04-20T22:41:09.717Z,97719.94
2023-04-20T22:43:38.002Z,97715.75
2023-04-20T22:46:06.421Z,97715.81
2023-04-20T22:48:35.386Z,97719.03
2023-04-20T22:51:03.485Z,97710.59
2023-04-20T22:53:34.117Z,97711.47
2023-04-20T22:56:06.917Z,97708.94
2023-04-20T22:58:35.332Z,97708.91
2023-04-20T23:01:04.100Z,97710.56
2023-04-20T23:03:32.651Z,97701.31
2023-04-20T23:06:01.066Z,97702.25
2023-04-20T23:08:29.669Z,97715.81
2023-04-20T23:10:59.355Z,97720.97
2023-04-20T23:13:27.502Z,97720.19
2023-04-20T23:15:55.986Z,97728.78
2023-04-20T23:18:24.034Z,97720.19
2023-04-20T23:20:52.177Z,97737.25
2023-04-20T23:23:20.509Z,97728.84
2023-04-20T23:25:48.734Z,97729.50
2023-04-20T23:28:18.759Z,97733.00
2023-04-20T23:30:47.232Z,97735.59
2023-04-20T23:33:16.061Z,97728.78
2023-04-20T23:35:44.327Z,97733.13
2023-04-20T23:38:12.709Z,97731.47
2023-04-20T23:40:40.878Z,97737.44
2023-04-20T23:43:09.215Z,97740.91
2023-04-20T23:45:38.800Z,97728.97
2023-04-20T23:48:07.508Z,97726.63
2023-04-20T23:50:37.110Z,97729.16
2023-04-20T23:53:05.871Z,97733.50
2023-04-20T23:55:34.037Z,97722.56
2023-04-20T23:58:02.252Z,97719.28
